createdAt,value
2023-09-09T00:00:38.012Z,20.95
2023-09-09T00:01:38.015Z,21.02
2023-09-09T00:02:37.971Z,20.93
2023-09-09T00:03:38.200Z,20.88
2023-09-09T00:04:37.929Z,20.96
2023-09-09T00:05:37.924Z,20.88
2023-09-09T00:06:37.932Z,20.95
2023-09-09T00:07:37.854Z,20.88
2023-09-09T00:08:37.832Z,20.96
2023-09-09T00:09:37.848Z,20.93
2023-09-09T00:10:37.821Z,20.97
2023-09-09T00:11:37.807Z,21.02
2023-09-09T00:12:37.782Z,20.96
2023-09-09T00:13:38.057Z,20.96
2023-09-09T00:14:37.714Z,20.90
2023-09-09T00:15:37.767Z,20.96
2023-09-09T00:16:37.795Z,20.93
2023-09-09T00:17:38.673Z,20.93
2023-09-09T00:18:37.630Z,20.99
2023-09-09T00:19:37.612Z,21.03
2023-09-09T00:20:37.624Z,20.95
2023-09-09T00:21:37.578Z,20.99
2023-09-09T00:22:37.556Z,21.05
2023-09-09T00:23:37.750Z,21.00
2023-09-09T00:24:37.589Z,20.92
2023-09-09T00:25:37.529Z,21.00
2023-09-09T00:26:37.482Z,20.97
2023-09-09T00:27:37.450Z,21.03
2023-09-09T00:28:37.484Z,20.96
2023-09-09T00:29:37.452Z,20.99
2023-09-09T00:30:37.397Z,20.95
2023-09-09T00:31:37.446Z,20.99
2023-09-09T00:32:37.381Z,21.00
2023-09-09T00:33:37.520Z,20.82
2023-09-09T00:34:37.348Z,20.95
2023-09-09T00:35:37.296Z,20.88
2023-09-09T00:36:37.278Z,20.77
2023-09-09T00:37:37.263Z,20.84
2023-09-09T00:38:37.263Z,20.77
2023-09-09T00:39:37.242Z,20.81
2023-09-09T00:40:37.228Z,20.88
2023-09-09T00:41:38.170Z,20.82
2023-09-09T00:42:37.151Z,20.75
2023-09-09T00:43:37.340Z,20.84
2023-09-09T00:44:37.116Z,20.70
2023-09-09T00:45:37.092Z,20.74
2023-09-09T00:46:37.167Z,20.84
2023-09-09T00:47:37.199Z,20.77
2023-09-09T00:48:37.114Z,20.77
2023-09-09T00:49:37.013Z,20.85
2023-09-09T00:50:37.018Z,20.70
2023-09-09T00:51:36.974Z,20.75
2023-09-09T00:52:37.018Z,20.78
2023-09-09T00:53:37.261Z,20.77
2023-09-09T00:54:36.944Z,20.70
2023-09-09T00:55:36.910Z,20.81
2023-09-09T00:56:36.873Z,20.75
2023-09-09T00:57:36.886Z,20.74
2023-09-09T00:58:36.924Z,20.67
2023-09-09T00:59:36.818Z,20.81
2023-09-09T01:00:36.794Z,20.67
2023-09-09T01:01:36.845Z,20.75
2023-09-09T01:02:36.928Z,20.67
2023-09-09T01:03:37.328Z,20.69
2023-09-09T01:04:36.757Z,20.70
2023-09-09T01:05:36.694Z,20.65
2023-09-09T01:06:36.702Z,20.77
2023-09-09T01:07:36.664Z,20.74
2023-09-09T01:08:36.635Z,20.75
2023-09-09T01:09:36.614Z,20.69
2023-09-09T01:10:36.594Z,20.70
2023-09-09T01:11:36.607Z,20.85
2023-09-09T01:12:36.554Z,20.87
2023-09-09T01:13:37.009Z,20.74
2023-09-09T01:14:36.646Z,20.80
2023-09-09T01:15:36.528Z,20.66
2023-09-09T01:16:36.543Z,20.75
2023-09-09T01:17:36.579Z,20.63
2023-09-09T01:18:36.432Z,20.62
2023-09-09T01:19:36.409Z,20.67
2023-09-09T01:20:36.458Z,20.67
2023-09-09T01:21:36.407Z,20.69
2023-09-09T01:22:36.357Z,20.52
2023-09-09T01:23:36.685Z,20.67
2023-09-09T01:24:36.316Z,20.65
2023-09-09T01:25:36.328Z,20.63
2023-09-09T01:26:36.300Z,20.60
2023-09-09T01:27:36.252Z,20.66
2023-09-09T01:28:36.247Z,20.48
2023-09-09T01:29:36.252Z,20.66
2023-09-09T01:30:36.229Z,20.59
2023-09-09T01:31:36.288Z,20.55
2023-09-09T01:32:37.325Z,20.47
2023-09-09T01:33:36.399Z,20.37
2023-09-09T01:34:36.136Z,20.43
2023-09-09T01:35:37.106Z,20.36
2023-09-09T01:36:36.095Z,20.43
2023-09-09T01:37:36.094Z,20.43
2023-09-09T01:38:36.041Z,20.37
2023-09-09T01:39:36.092Z,20.44
2023-09-09T01:40:35.999Z,20.37
2023-09-09T01:41:36.001Z,20.41
2023-09-09T01:42:35.988Z,20.36
2023-09-09T01:43:36.223Z,20.62
2023-09-09T01:44:35.964Z,20.60
2023-09-09T01:45:35.919Z,20.63
2023-09-09T01:46:35.960Z,20.67
2023-09-09T01:47:35.907Z,20.70
2023-09-09T01:48:35.878Z,20.75
2023-09-09T01:49:35.811Z,20.65
2023-09-09T01:50:35.796Z,20.72
2023-09-09T01:51:35.781Z,20.67
2023-09-09T01:52:35.751Z,20.66
2023-09-09T01:53:36.002Z,20.58
2023-09-09T01:54:35.715Z,20.58
2023-09-09T01:55:35.719Z,20.51
2023-09-09T01:56:35.681Z,20.43
2023-09-09T01:57:35.701Z,20.40
2023-09-09T01:58:35.642Z,20.36
2023-09-09T01:59:35.703Z,20.34
2023-09-09T02:00:35.616Z,20.34
2023-09-09T02:01:35.628Z,20.16
2023-09-09T02:02:35.680Z,20.18
2023-09-09T02:03:35.882Z,20.21
2023-09-09T02:04:35.529Z,20.11
2023-09-09T02:05:35.497Z,20.09
2023-09-09T02:06:35.476Z,20.09
2023-09-09T02:07:35.479Z,20.06
2023-09-09T02:08:36.304Z,20.14
2023-09-09T02:09:35.410Z,20.14
2023-09-09T02:10:35.390Z,20.22
2023-09-09T02:11:35.412Z,20.11
2023-09-09T02:12:35.396Z,20.16
2023-09-09T02:13:35.480Z,20.16
2023-09-09T02:14:35.311Z,20.28
2023-09-09T02:15:35.327Z,20.21
2023-09-09T02:16:35.381Z,20.21
2023-09-09T02:17:35.270Z,20.25
2023-09-09T02:18:35.244Z,20.28
2023-09-09T02:19:35.273Z,20.16
2023-09-09T02:20:35.186Z,20.18
2023-09-09T02:21:35.198Z,20.04
2023-09-09T02:22:35.142Z,20.10
2023-09-09T02:23:35.365Z,20.04
2023-09-09T02:24:35.112Z,20.06
2023-09-09T02:25:35.166Z,20.09
2023-09-09T02:26:35.091Z,20.07
2023-09-09T02:27:35.041Z,20.13
2023-09-09T02:28:35.099Z,20.06
2023-09-09T02:29:35.173Z,20.11
2023-09-09T02:30:35.108Z,20.10
2023-09-09T02:31:35.097Z,20.07
2023-09-09T02:32:35.081Z,20.03
2023-09-09T02:33:35.149Z,20.03
2023-09-09T02:34:34.895Z,20.04
2023-09-09T02:35:35.043Z,20.04
2023-09-09T02:36:34.860Z,19.89
2023-09-09T02:37:34.834Z,20.02
2023-09-09T02:38:34.813Z,19.88
2023-09-09T02:39:34.891Z,19.91
2023-09-09T02:40:34.798Z,19.94
2023-09-09T02:41:34.753Z,19.92
2023-09-09T02:42:34.751Z,19.89
2023-09-09T02:43:34.955Z,19.94
2023-09-09T02:44:34.746Z,20.00
2023-09-09T02:45:34.669Z,19.95
2023-09-09T02:46:34.756Z,20.00
2023-09-09T02:47:34.622Z,20.00
2023-09-09T02:48:34.606Z,20.04
2023-09-09T02:49:34.638Z,20.03
2023-09-09T02:50:34.559Z,20.02
2023-09-09T02:51:34.538Z,20.00
2023-09-09T02:52:34.545Z,19.85
2023-09-09T02:53:34.638Z,19.89
2023-09-09T02:54:34.503Z,19.94
2023-09-09T02:55:34.493Z,19.89
2023-09-09T02:56:34.435Z,19.95
2023-09-09T02:57:34.419Z,20.03
2023-09-09T02:58:34.450Z,20.03
2023-09-09T02:59:34.392Z,19.91
2023-09-09T03:00:34.354Z,20.00
2023-09-09T03:01:34.460Z,19.94
2023-09-09T03:02:34.386Z,19.94
2023-09-09T03:03:34.486Z,19.86
2023-09-09T03:04:34.283Z,19.88
2023-09-09T03:05:34.252Z,19.84
2023-09-09T03:06:34.276Z,19.82
2023-09-09T03:07:35.248Z,19.82
2023-09-09T03:08:34.234Z,19.76
2023-09-09T03:09:34.175Z,19.81
2023-09-09T03:10:34.189Z,19.73
2023-09-09T03:11:34.135Z,19.76
2023-09-09T03:12:34.193Z,19.67
2023-09-09T03:13:34.097Z,19.66
2023-09-09T03:14:34.079Z,19.81
2023-09-09T03:15:34.052Z,19.79
2023-09-09T03:16:34.050Z,19.76
2023-09-09T03:17:34.075Z,19.55
2023-09-09T03:18:34.039Z,19.66
2023-09-09T03:19:33.963Z,19.52
2023-09-09T03:20:33.968Z,19.62
2023-09-09T03:21:33.919Z,19.63
2023-09-09T03:22:33.930Z,19.63
2023-09-09T03:23:33.880Z,19.48
2023-09-09T03:24:33.861Z,19.54
2023-09-09T03:25:33.878Z,19.58
2023-09-09T03:26:33.941Z,19.63
2023-09-09T03:27:33.804Z,19.52
2023-09-09T03:28:33.785Z,19.52
2023-09-09T03:29:33.874Z,19.62
2023-09-09T03:30:33.735Z,19.56
2023-09-09T03:31:33.754Z,19.54
2023-09-09T03:32:33.727Z,19.67
2023-09-09T03:33:33.704Z,19.63
2023-09-09T03:34:33.656Z,19.64
2023-09-09T03:35:33.662Z,19.58
2023-09-09T03:36:33.645Z,19.66
2023-09-09T03:37:33.600Z,19.54
2023-09-09T03:38:33.573Z,19.67
2023-09-09T03:39:33.582Z,19.67
2023-09-09T03:40:33.559Z,19.73
2023-09-09T03:41:33.542Z,19.67
2023-09-09T03:42:33.492Z,19.69
2023-09-09T03:43:33.665Z,19.67
2023-09-09T03:44:33.454Z,19.58
2023-09-09T03:45:33.487Z,19.70
2023-09-09T03:46:33.459Z,19.67
2023-09-09T03:47:33.459Z,19.67
2023-09-09T03:48:33.413Z,19.66
2023-09-09T03:49:33.385Z,19.64
2023-09-09T03:50:33.357Z,19.62
2023-09-09T03:51:33.307Z,19.64
2023-09-09T03:52:33.375Z,19.58
2023-09-09T03:53:33.287Z,19.69
2023-09-09T03:54:33.282Z,19.59
2023-09-09T03:55:33.236Z,19.56
2023-09-09T03:56:33.203Z,19.62
2023-09-09T03:57:33.186Z,19.73
2023-09-09T03:58:33.170Z,19.77
2023-09-09T03:59:33.169Z,19.76
2023-09-09T04:00:33.170Z,19.81
2023-09-09T04:01:33.172Z,19.79
2023-09-09T04:02:33.098Z,19.81
2023-09-09T04:03:33.239Z,19.76
2023-09-09T04:04:33.147Z,19.86
2023-09-09T04:05:33.011Z,19.81
2023-09-09T04:06:32.991Z,19.76
2023-09-09T04:07:33.008Z,19.81
2023-09-09T04:08:33.048Z,19.81
2023-09-09T04:09:32.927Z,19.84
2023-09-09T04:10:32.916Z,19.94
2023-09-09T04:11:32.884Z,19.86
2023-09-09T04:12:32.873Z,19.91
2023-09-09T04:13:32.919Z,19.91
2023-09-09T04:14:32.831Z,19.92
2023-09-09T04:15:32.808Z,19.94
2023-09-09T04:16:32.876Z,20.00
2023-09-09T04:17:32.887Z,19.91
2023-09-09T04:18:45.094Z,19.94
2023-09-09T04:19:34.764Z,19.95
2023-09-09T04:20:32.706Z,19.99
2023-09-09T04:21:32.686Z,19.92
2023-09-09T04:22:32.702Z,19.86
2023-09-09T04:23:32.645Z,19.91
2023-09-09T04:24:32.674Z,19.81
2023-09-09T04:25:32.604Z,19.84
2023-09-09T04:26:32.604Z,19.84
2023-09-09T04:27:32.639Z,19.76
2023-09-09T04:28:32.536Z,19.82
2023-09-09T04:29:33.521Z,19.79
2023-09-09T04:30:32.519Z,19.73
2023-09-09T04:31:32.514Z,19.77
2023-09-09T04:32:32.547Z,19.81
2023-09-09T04:33:32.436Z,19.74
2023-09-09T04:34:32.418Z,19.73
2023-09-09T04:35:32.399Z,19.64
2023-09-09T04:36:32.402Z,19.70
2023-09-09T04:37:32.358Z,19.77
2023-09-09T04:38:32.345Z,19.67
2023-09-09T04:39:32.313Z,19.69
2023-09-09T04:40:32.294Z,19.62
2023-09-09T04:41:32.301Z,19.77
2023-09-09T04:42:32.253Z,19.67
2023-09-09T04:43:32.233Z,19.70
2023-09-09T04:44:32.209Z,19.81
2023-09-09T04:45:32.405Z,19.79
2023-09-09T04:46:32.215Z,19.85
2023-09-09T04:47:32.180Z,19.88
2023-09-09T04:48:32.197Z,19.84
2023-09-09T04:49:32.135Z,19.89
2023-09-09T04:50:32.126Z,19.95
2023-09-09T04:51:32.067Z,19.86
2023-09-09T04:52:32.900Z,19.95
2023-09-09T04:53:32.033Z,20.03
2023-09-09T04:54:32.011Z,20.04
2023-09-09T04:55:32.047Z,20.04
2023-09-09T04:56:31.969Z,20.10
2023-09-09T04:57:31.943Z,20.09
2023-09-09T04:58:31.985Z,20.21
2023-09-09T04:59:31.935Z,20.22
2023-09-09T05:00:31.920Z,20.18
2023-09-09T05:01:31.965Z,20.36
2023-09-09T05:02:31.900Z,20.48
2023-09-09T05:03:31.856Z,20.69
2023-09-09T05:04:31.875Z,20.96
2023-09-09T05:05:31.787Z,21.20
2023-09-09T05:06:31.770Z,21.50
2023-09-09T05:07:31.749Z,21.66
2023-09-09T05:08:31.737Z,21.89
2023-09-09T05:09:31.754Z,22.23
2023-09-09T05:10:31.690Z,22.32
2023-09-09T05:11:31.684Z,22.66
2023-09-09T05:12:31.691Z,22.96
2023-09-09T05:13:31.696Z,23.31
2023-09-09T05:14:31.647Z,23.47
2023-09-09T05:15:31.600Z,23.91
2023-09-09T05:16:31.680Z,24.29
2023-09-09T05:17:31.622Z,24.54
2023-09-09T05:18:31.571Z,24.98
2023-09-09T05:19:31.611Z,25.29
2023-09-09T05:20:31.508Z,25.59
2023-09-09T05:21:31.493Z,25.80
2023-09-09T05:22:31.494Z,26.13
2023-09-09T05:23:31.478Z,26.41
2023-09-09T05:24:33.472Z,26.65
2023-09-09T05:25:31.419Z,26.99
2023-09-09T05:26:31.409Z,27.29
2023-09-09T05:27:31.424Z,27.48
2023-09-09T05:28:31.386Z,27.74
2023-09-09T05:29:31.348Z,27.89
2023-09-09T05:30:31.330Z,27.86
2023-09-09T05:31:32.417Z,28.10
2023-09-09T05:32:32.416Z,28.51
2023-09-09T05:33:31.351Z,28.67
2023-09-09T05:34:31.261Z,28.93
2023-09-09T05:35:31.239Z,29.29
2023-09-09T05:36:31.253Z,29.61
2023-09-09T05:37:31.244Z,29.88
2023-09-09T05:38:31.189Z,30.16
2023-09-09T05:39:31.168Z,30.39
2023-09-09T05:40:31.149Z,30.51
2023-09-09T05:41:31.165Z,30.75
2023-09-09T05:42:31.153Z,30.90
2023-09-09T05:43:31.097Z,31.18
2023-09-09T05:44:31.086Z,31.42
2023-09-09T05:45:31.102Z,31.56
2023-09-09T05:46:31.197Z,31.47
2023-09-09T05:47:31.048Z,31.49
2023-09-09T05:48:31.014Z,31.78
2023-09-09T05:49:38.754Z,32.08
2023-09-09T05:50:33.010Z,32.30
2023-09-09T05:51:30.989Z,32.58
2023-09-09T05:52:31.019Z,32.71
2023-09-09T05:53:31.091Z,33.02
2023-09-09T05:54:30.910Z,33.14
2023-09-09T05:55:30.918Z,33.40
2023-09-09T05:56:30.909Z,33.30
2023-09-09T05:57:30.857Z,33.52
2023-09-09T05:58:30.839Z,33.49
2023-09-09T05:59:30.905Z,33.77
2023-09-09T06:00:30.839Z,33.96
2023-09-09T06:01:30.799Z,34.14
2023-09-09T06:02:30.803Z,34.23
2023-09-09T06:03:30.809Z,34.39
2023-09-09T06:04:30.851Z,34.17
2023-09-09T06:05:30.755Z,34.11
2023-09-09T06:06:30.707Z,33.95
2023-09-09T06:07:30.688Z,33.68
2023-09-09T06:08:30.679Z,33.87
2023-09-09T06:09:30.688Z,34.18
2023-09-09T06:10:30.686Z,34.36
2023-09-09T06:11:30.622Z,34.33
2023-09-09T06:12:30.622Z,34.62
2023-09-09T06:13:31.630Z,34.86
2023-09-09T06:14:30.605Z,35.19
2023-09-09T06:15:30.552Z,35.27
2023-09-09T06:16:30.595Z,35.37
2023-09-09T06:17:30.564Z,35.31
2023-09-09T06:18:30.559Z,35.49
2023-09-09T06:19:30.517Z,34.48
2023-09-09T06:20:30.477Z,34.24
2023-09-09T06:21:30.452Z,34.35
2023-09-09T06:22:30.439Z,34.38
2023-09-09T06:23:30.457Z,34.32
2023-09-09T06:24:30.405Z,34.43
2023-09-09T06:25:30.392Z,34.85
2023-09-09T06:26:30.386Z,35.45
2023-09-09T06:27:30.392Z,35.98
2023-09-09T06:28:30.404Z,36.17
2023-09-09T06:29:30.527Z,36.58
2023-09-09T06:30:30.318Z,36.21
2023-09-09T06:31:30.399Z,36.33
2023-09-09T06:32:30.450Z,36.65
2023-09-09T06:33:30.275Z,36.65
2023-09-09T06:34:30.263Z,36.54
2023-09-09T06:35:30.326Z,35.88
2023-09-09T06:36:30.218Z,36.07
2023-09-09T06:37:30.238Z,36.54
2023-09-09T06:38:30.226Z,36.76
2023-09-09T06:39:30.168Z,36.52
2023-09-09T06:40:30.153Z,36.65
2023-09-09T06:41:30.178Z,36.93
2023-09-09T06:42:30.160Z,36.99
2023-09-09T06:43:30.115Z,37.10
2023-09-09T06:44:30.089Z,37.18
2023-09-09T06:45:30.879Z,37.10
2023-09-09T06:46:30.146Z,37.35
2023-09-09T06:47:30.129Z,37.60
2023-09-09T06:48:30.184Z,37.64
2023-09-09T06:49:30.015Z,37.56
2023-09-09T06:50:30.024Z,37.96
2023-09-09T06:51:30.012Z,37.92
2023-09-09T06:52:29.975Z,38.23
2023-09-09T06:53:30.055Z,38.14
2023-09-09T06:54:29.941Z,38.04
2023-09-09T06:55:29.957Z,38.11
2023-09-09T06:56:29.937Z,38.43
2023-09-09T06:57:29.889Z,37.59
2023-09-09T06:58:29.878Z,37.25
2023-09-09T06:59:29.859Z,36.55
2023-09-09T07:00:29.866Z,36.43
2023-09-09T07:01:29.828Z,36.24
2023-09-09T07:02:29.867Z,35.92
2023-09-09T07:03:29.866Z,36.72
2023-09-09T07:04:29.821Z,37.48
2023-09-09T07:05:29.791Z,38.24
2023-09-09T07:06:29.759Z,38.87
2023-09-09T07:07:33.565Z,38.09
2023-09-09T07:08:31.748Z,37.59
2023-09-09T07:09:29.735Z,38.08
2023-09-09T07:10:29.717Z,38.38
2023-09-09T07:11:29.678Z,37.93
2023-09-09T07:12:29.686Z,37.23
2023-09-09T07:13:29.652Z,37.47
2023-09-09T07:14:31.512Z,37.25
2023-09-09T07:16:29.657Z,36.54
2023-09-09T07:17:29.601Z,37.08
2023-09-09T07:18:29.600Z,37.56
2023-09-09T07:19:29.589Z,37.60
2023-09-09T07:20:29.560Z,37.78
2023-09-09T07:21:29.527Z,38.21
2023-09-09T07:22:29.515Z,38.50
2023-09-09T07:23:29.523Z,38.80
2023-09-09T07:24:29.515Z,39.11
2023-09-09T07:25:29.667Z,39.22
2023-09-09T07:26:29.449Z,39.31
2023-09-09T07:27:29.429Z,39.37
2023-09-09T07:28:29.443Z,39.37
2023-09-09T07:29:29.437Z,39.26
2023-09-09T07:30:29.394Z,39.44
2023-09-09T07:31:29.462Z,39.63
2023-09-09T07:32:29.431Z,39.55
2023-09-09T07:33:29.368Z,38.71
2023-09-09T07:34:29.329Z,38.17
2023-09-09T07:35:29.316Z,37.80
2023-09-09T07:36:29.297Z,37.83
2023-09-09T07:37:29.442Z,38.04
2023-09-09T07:38:30.299Z,38.01
2023-09-09T07:39:29.275Z,38.23
2023-09-09T07:40:29.243Z,38.60
2023-09-09T07:41:29.228Z,38.69
2023-09-09T07:42:29.246Z,38.91
2023-09-09T07:43:29.205Z,39.11
2023-09-09T07:44:29.187Z,39.31
2023-09-09T07:45:29.173Z,39.24
2023-09-09T07:46:29.155Z,39.31
2023-09-09T07:47:29.203Z,38.95
2023-09-09T07:48:29.120Z,38.68
2023-09-09T07:49:29.103Z,38.64
2023-09-09T07:50:29.150Z,38.73
2023-09-09T07:51:29.104Z,38.87
2023-09-09T07:52:29.092Z,38.97
2023-09-09T07:53:29.049Z,38.61
2023-09-09T07:54:29.031Z,38.01
2023-09-09T07:55:30.524Z,38.17
2023-09-09T07:56:29.028Z,38.39
2023-09-09T07:57:28.997Z,38.15
2023-09-09T07:58:28.973Z,37.56
2023-09-09T07:59:28.958Z,37.33
2023-09-09T08:00:29.004Z,37.33
2023-09-09T08:01:28.987Z,36.95
2023-09-09T08:02:28.937Z,36.92
2023-09-09T08:03:28.993Z,37.29
2023-09-09T08:04:28.914Z,37.58
2023-09-09T08:05:28.889Z,37.71
2023-09-09T08:06:28.883Z,36.84
2023-09-09T08:07:28.841Z,36.70
2023-09-09T08:08:28.816Z,36.83
2023-09-09T08:09:28.803Z,37.11
2023-09-09T08:10:28.815Z,37.06
2023-09-09T08:11:28.777Z,36.96
2023-09-09T08:12:28.754Z,36.73
2023-09-09T08:13:28.743Z,36.79
2023-09-09T08:14:28.754Z,36.96
2023-09-09T08:15:40.025Z,36.40
2023-09-09T08:16:33.661Z,35.98
2023-09-09T08:17:28.683Z,36.17
2023-09-09T08:18:28.681Z,36.23
2023-09-09T08:19:28.712Z,36.52
2023-09-09T08:20:28.630Z,36.79
2023-09-09T08:21:28.613Z,36.05
2023-09-09T08:22:28.633Z,36.31
2023-09-09T08:23:28.594Z,36.49
2023-09-09T08:24:28.605Z,36.43
2023-09-09T08:25:28.551Z,36.55
2023-09-09T08:26:28.577Z,36.51
2023-09-09T08:27:28.525Z,36.57
2023-09-09T08:28:28.542Z,36.72
2023-09-09T08:29:28.517Z,36.64
2023-09-09T08:30:28.475Z,36.46
2023-09-09T08:31:28.508Z,36.21
2023-09-09T08:32:28.502Z,36.58
2023-09-09T08:33:28.459Z,36.25
2023-09-09T08:34:28.413Z,35.14
2023-09-09T08:35:28.407Z,35.33
2023-09-09T08:36:28.381Z,35.86
2023-09-09T08:37:28.370Z,36.14
2023-09-09T08:38:28.451Z,36.36
2023-09-09T08:39:28.335Z,36.57
2023-09-09T08:40:28.318Z,37.01
2023-09-09T08:41:28.349Z,37.21
2023-09-09T08:42:28.315Z,37.30
2023-09-09T08:43:28.301Z,36.98
2023-09-09T08:44:28.271Z,37.11
2023-09-09T08:45:28.267Z,37.14
2023-09-09T08:46:28.225Z,37.26
2023-09-09T08:47:29.527Z,37.47
2023-09-09T08:48:29.248Z,37.10
2023-09-09T08:49:28.176Z,36.83
2023-09-09T08:50:28.174Z,35.85
2023-09-09T08:51:28.147Z,35.02
2023-09-09T08:52:28.187Z,34.67
2023-09-09T08:53:28.112Z,34.86
2023-09-09T08:54:28.103Z,34.74
2023-09-09T08:55:28.098Z,34.86
2023-09-09T08:56:28.100Z,35.17
2023-09-09T08:57:28.169Z,35.51
2023-09-09T08:58:28.039Z,35.88
2023-09-09T08:59:28.027Z,36.20
2023-09-09T09:00:28.030Z,36.27
2023-09-09T09:01:28.151Z,36.31
2023-09-09T09:02:28.030Z,36.49
2023-09-09T09:03:28.037Z,36.54
2023-09-09T09:04:28.048Z,36.40
2023-09-09T09:05:27.973Z,36.05
2023-09-09T09:06:27.958Z,36.04
2023-09-09T09:07:27.916Z,36.14
2023-09-09T09:08:27.921Z,36.16
2023-09-09T09:09:27.877Z,36.07
2023-09-09T09:10:27.907Z,35.52
2023-09-09T09:11:27.873Z,34.89
2023-09-09T09:12:27.830Z,34.54
2023-09-09T09:13:27.825Z,33.37
2023-09-09T09:14:27.794Z,32.90
2023-09-09T09:15:27.804Z,32.73
2023-09-09T09:16:27.762Z,32.70
2023-09-09T09:17:27.795Z,32.37
2023-09-09T09:18:27.788Z,32.48
2023-09-09T09:19:27.720Z,32.64
2023-09-09T09:20:27.723Z,32.60
2023-09-09T09:21:27.691Z,32.09
2023-09-09T09:22:27.664Z,31.73
2023-09-09T09:23:27.648Z,31.20
2023-09-09T09:24:28.128Z,31.51
2023-09-09T09:25:27.649Z,32.01
2023-09-09T09:26:27.632Z,31.97
2023-09-09T09:27:27.590Z,31.56
2023-09-09T09:28:27.570Z,31.27
2023-09-09T09:29:27.613Z,31.09
2023-09-09T09:30:29.340Z,30.50
2023-09-09T09:31:28.649Z,30.48
2023-09-09T09:32:27.546Z,30.46
2023-09-09T09:33:27.558Z,30.05
2023-09-09T09:34:27.506Z,30.03
2023-09-09T09:35:27.469Z,30.48
2023-09-09T09:36:27.452Z,30.57
2023-09-09T09:37:27.457Z,31.05
2023-09-09T09:38:27.444Z,30.88
2023-09-09T09:39:27.423Z,31.03
2023-09-09T09:40:27.377Z,31.51
2023-09-09T09:41:27.370Z,31.66
2023-09-09T09:42:27.365Z,32.11
2023-09-09T09:43:27.357Z,32.36
2023-09-09T09:44:27.353Z,32.49
2023-09-09T09:45:27.290Z,32.45
2023-09-09T09:46:27.288Z,32.36
2023-09-09T09:47:27.286Z,32.41
2023-09-09T09:48:27.279Z,32.68
2023-09-09T09:49:27.222Z,32.09
2023-09-09T09:50:27.209Z,31.66
2023-09-09T09:51:27.192Z,31.66
2023-09-09T09:52:27.248Z,31.51
2023-09-09T09:53:27.185Z,31.52
2023-09-09T09:54:27.186Z,31.20
2023-09-09T09:55:27.126Z,30.73
2023-09-09T09:56:27.110Z,30.85
2023-09-09T09:57:27.117Z,30.91
2023-09-09T09:58:27.102Z,30.92
2023-09-09T09:59:27.065Z,31.00
2023-09-09T10:00:27.053Z,31.06
2023-09-09T10:01:27.049Z,30.92
2023-09-09T10:02:27.063Z,31.40
2023-09-09T10:03:26.982Z,31.29
2023-09-09T10:04:26.995Z,31.15
2023-09-09T10:05:26.963Z,30.77
2023-09-09T10:06:26.978Z,30.92
2023-09-09T10:07:26.935Z,31.14
2023-09-09T10:08:26.904Z,31.20
2023-09-09T10:09:26.885Z,31.21
2023-09-09T10:10:26.871Z,30.48
2023-09-09T10:11:26.888Z,30.06
2023-09-09T10:12:42.177Z,29.45
2023-09-09T10:13:28.853Z,29.34
2023-09-09T10:14:26.805Z,29.59
2023-09-09T10:15:26.805Z,30.02
2023-09-09T10:16:26.936Z,30.39
2023-09-09T10:17:26.767Z,30.59
2023-09-09T10:18:26.726Z,30.44
2023-09-09T10:19:26.707Z,29.93
2023-09-09T10:20:27.730Z,29.63
2023-09-09T10:21:40.390Z,29.35
2023-09-09T10:22:28.662Z,28.86
2023-09-09T10:23:26.642Z,28.89
2023-09-09T10:24:26.622Z,29.05
2023-09-09T10:25:26.783Z,29.29
2023-09-09T10:26:26.614Z,29.32
2023-09-09T10:27:26.612Z,29.41
2023-09-09T10:28:26.669Z,29.51
2023-09-09T10:29:26.608Z,29.69
2023-09-09T10:30:26.571Z,29.88
2023-09-09T10:31:26.560Z,29.84
2023-09-09T10:32:26.483Z,29.82
2023-09-09T10:33:26.468Z,29.60
2023-09-09T10:34:26.486Z,29.22
2023-09-09T10:35:26.463Z,29.26
2023-09-09T10:36:26.421Z,29.71
2023-09-09T10:37:26.399Z,29.76
2023-09-09T10:38:26.380Z,30.13
2023-09-09T10:39:26.531Z,30.47
2023-09-09T10:40:26.351Z,30.39
2023-09-09T10:41:26.325Z,30.28
2023-09-09T10:42:26.323Z,30.40
2023-09-09T10:43:26.328Z,30.44
2023-09-09T10:44:26.332Z,30.39
2023-09-09T10:45:26.261Z,30.65
2023-09-09T10:46:26.301Z,30.73
2023-09-09T10:47:26.258Z,30.47
2023-09-09T10:48:26.246Z,30.10
2023-09-09T10:49:26.191Z,29.73
2023-09-09T10:50:26.242Z,29.81
2023-09-09T10:51:26.147Z,30.02
2023-09-09T10:52:26.139Z,29.94
2023-09-09T10:53:26.140Z,30.08
2023-09-09T10:54:26.123Z,30.27
2023-09-09T10:55:26.072Z,30.46
2023-09-09T10:56:27.062Z,30.50
2023-09-09T10:57:26.110Z,30.57
2023-09-09T10:58:26.052Z,30.34
2023-09-09T10:59:26.019Z,29.91
2023-09-09T11:00:25.986Z,29.49
2023-09-09T11:01:26.040Z,29.38
2023-09-09T11:02:26.046Z,29.39
2023-09-09T11:03:25.931Z,29.65
2023-09-09T11:04:25.966Z,29.53
2023-09-09T11:05:25.972Z,29.38
2023-09-09T11:06:25.993Z,29.53
2023-09-09T11:07:25.882Z,29.50
2023-09-09T11:08:25.861Z,29.47
2023-09-09T11:09:25.816Z,29.66
2023-09-09T11:10:25.811Z,29.60
2023-09-09T11:11:25.820Z,29.78
2023-09-09T11:12:25.789Z,29.39
2023-09-09T11:13:25.748Z,29.04
2023-09-09T11:14:25.727Z,29.08
2023-09-09T11:15:25.714Z,29.02
2023-09-09T11:16:25.801Z,28.98
2023-09-09T11:17:25.724Z,29.14
2023-09-09T11:18:25.663Z,29.36
2023-09-09T11:19:25.648Z,29.26
2023-09-09T11:20:25.818Z,29.02
2023-09-09T11:21:25.673Z,28.93
2023-09-09T11:22:25.595Z,28.91
2023-09-09T11:23:25.609Z,28.81
2023-09-09T11:24:25.573Z,28.98
2023-09-09T11:25:25.572Z,29.29
2023-09-09T11:26:25.550Z,29.27
2023-09-09T11:27:25.512Z,29.56
2023-09-09T11:28:25.518Z,29.59
2023-09-09T11:29:36.305Z,29.76
2023-09-09T11:30:27.476Z,29.90
2023-09-09T11:31:25.479Z,29.91
2023-09-09T11:32:25.598Z,29.94
2023-09-09T11:33:25.469Z,29.94
2023-09-09T11:34:25.406Z,29.68
2023-09-09T11:35:25.390Z,29.61
2023-09-09T11:36:25.359Z,29.59
2023-09-09T11:37:26.526Z,29.72
2023-09-09T11:38:25.329Z,29.71
2023-09-09T11:39:25.313Z,29.73
2023-09-09T11:40:25.272Z,29.66
2023-09-09T11:41:25.262Z,29.84
2023-09-09T11:42:25.229Z,29.95
2023-09-09T11:43:25.243Z,29.81
2023-09-09T11:44:25.273Z,29.98
2023-09-09T11:45:25.196Z,30.08
2023-09-09T11:46:25.211Z,30.02
2023-09-09T11:47:25.143Z,30.10
2023-09-09T11:48:25.167Z,30.13
2023-09-09T11:49:25.116Z,30.16
2023-09-09T11:50:25.110Z,30.30
2023-09-09T11:51:25.098Z,30.09
2023-09-09T11:52:25.064Z,30.06
2023-09-09T11:53:25.098Z,30.21
2023-09-09T11:54:25.011Z,30.35
2023-09-09T11:55:24.990Z,30.57
2023-09-09T11:56:24.974Z,30.31
2023-09-09T11:57:24.990Z,30.24
2023-09-09T11:58:24.983Z,30.18
2023-09-09T11:59:24.923Z,29.94
2023-09-09T12:00:24.907Z,29.97
2023-09-09T12:01:25.010Z,29.98
2023-09-09T12:02:25.052Z,30.12
2023-09-09T12:03:24.875Z,29.97
2023-09-09T12:04:25.995Z,29.57
2023-09-09T12:05:27.267Z,29.78
2023-09-09T12:06:24.796Z,29.76
2023-09-09T12:07:24.808Z,29.81
2023-09-09T12:08:25.760Z,29.87
2023-09-09T12:09:24.739Z,30.08
2023-09-09T12:10:24.740Z,29.94
2023-09-09T12:11:24.814Z,29.93
2023-09-09T12:12:24.734Z,29.82
2023-09-09T12:13:24.673Z,29.79
2023-09-09T12:14:25.256Z,29.84
2023-09-09T12:15:24.631Z,30.03
2023-09-09T12:16:24.682Z,30.19
2023-09-09T12:17:24.631Z,30.12
2023-09-09T12:18:24.608Z,30.16
2023-09-09T12:19:24.561Z,29.97
2023-09-09T12:20:24.544Z,30.00
2023-09-09T12:21:24.836Z,30.09
2023-09-09T12:22:24.514Z,30.10
2023-09-09T12:23:24.493Z,30.09
2023-09-09T12:24:24.469Z,30.13
2023-09-09T12:25:24.478Z,29.98
2023-09-09T12:26:24.462Z,29.76
2023-09-09T12:27:24.415Z,29.81
2023-09-09T12:28:24.403Z,29.66
2023-09-09T12:29:24.384Z,29.73
2023-09-09T12:30:24.394Z,29.76
2023-09-09T12:31:24.383Z,29.81
2023-09-09T12:32:24.355Z,29.81
2023-09-09T12:33:24.317Z,29.86
2023-09-09T12:34:24.306Z,29.82
2023-09-09T12:35:24.304Z,29.95
2023-09-09T12:36:24.281Z,29.91
2023-09-09T12:37:24.256Z,29.76
2023-09-09T12:38:24.224Z,29.53
2023-09-09T12:39:24.237Z,29.19
2023-09-09T12:40:24.224Z,29.17
2023-09-09T12:41:24.196Z,29.35
2023-09-09T12:42:24.158Z,29.39
2023-09-09T12:43:24.163Z,29.51
2023-09-09T12:44:24.158Z,29.54
2023-09-09T12:45:24.251Z,29.54
2023-09-09T12:46:24.184Z,29.36
2023-09-09T12:47:24.149Z,29.10
2023-09-09T12:48:24.085Z,29.04
2023-09-09T12:49:24.071Z,29.05
2023-09-09T12:50:24.019Z,28.82
2023-09-09T12:51:24.036Z,28.79
2023-09-09T12:52:23.978Z,28.85
2023-09-09T12:53:23.995Z,28.81